createdAt,value
2022-11-28T00:01:30.764Z,12.50
2022-11-28T00:03:57.226Z,13.27
2022-11-28T00:06:24.045Z,12.18
2022-11-28T00:08:50.749Z,11.40
2022-11-28T00:11:17.959Z,14.30
2022-11-28T00:13:45.278Z,12.23
2022-11-28T00:16:18.229Z,12.73
2022-11-28T00:18:45.225Z,14.13
2022-11-28T00:21:13.113Z,14.07
2022-11-28T00:23:40.026Z,13.27
2022-11-28T00:26:10.085Z,12.57
2022-11-28T00:28:37.555Z,12.75
2022-11-28T00:31:04.838Z,16.70
2022-11-28T00:33:34.844Z,13.23
2022-11-28T00:36:03.626Z,14.18
2022-11-28T00:38:31.065Z,16.75
2022-11-28T00:41:08.468Z,17.33
2022-11-28T00:43:35.034Z,14.75
2022-11-28T00:46:02.465Z,18.70
2022-11-28T00:48:29.586Z,17.48
2022-11-28T00:51:04.694Z,16.92
2022-11-28T00:53:31.006Z,15.63
2022-11-28T00:55:57.463Z,19.63
2022-11-28T00:58:23.802Z,15.63
2022-11-28T01:00:50.303Z,17.42
2022-11-28T01:03:16.616Z,13.82
2022-11-28T01:05:43.420Z,17.05
2022-11-28T01:08:10.727Z,17.20
2022-11-28T01:10:45.576Z,15.85
2022-11-28T01:13:12.031Z,18.48
2022-11-28T01:15:41.552Z,18.92
2022-11-28T01:18:07.903Z,15.82
2022-11-28T01:20:34.244Z,15.77
2022-11-28T01:23:00.838Z,16.17
2022-11-28T01:25:27.402Z,19.35
2022-11-28T01:27:53.916Z,14.60
2022-11-28T01:30:20.210Z,23.23
2022-11-28T01:32:46.510Z,18.08
2022-11-28T01:35:12.971Z,17.10
2022-11-28T01:37:39.255Z,19.38
2022-11-28T01:40:06.472Z,21.00
2022-11-28T01:42:32.880Z,16.75
2022-11-28T01:45:07.729Z,17.83
2022-11-28T01:47:35.050Z,18.65
2022-11-28T01:50:03.357Z,22.30
2022-11-28T01:52:29.898Z,19.17
2022-11-28T01:55:00.986Z,23.67
2022-11-28T01:57:28.256Z,19.23
2022-11-28T02:00:01.820Z,22.35
2022-11-28T02:02:46.230Z,19.65
2022-11-28T02:05:13.310Z,19.73
2022-11-28T02:07:42.669Z,18.65
2022-11-28T02:10:11.971Z,17.58
2022-11-28T02:12:49.696Z,18.15
2022-11-28T02:15:44.951Z,15.38
2022-11-28T02:18:11.194Z,21.10
2022-11-28T02:20:55.972Z,20.65
2022-11-28T02:24:04.814Z,17.65
2022-11-28T02:27:09.024Z,16.42
2022-11-28T02:29:50.351Z,15.93
2022-11-28T02:32:25.106Z,14.55
2022-11-28T02:35:10.062Z,16.90
2022-11-28T02:37:53.792Z,15.63
2022-11-28T02:40:51.346Z,15.90
2022-11-28T02:43:20.479Z,14.85
2022-11-28T02:46:16.658Z,16.30
2022-11-28T02:48:46.018Z,17.77
2022-11-28T02:51:42.151Z,15.20
2022-11-28T02:54:11.858Z,18.42
2022-11-28T02:56:38.389Z,15.63
2022-11-28T02:59:18.667Z,14.43
2022-11-28T03:01:45.061Z,14.70
2022-11-28T03:04:38.243Z,17.55
2022-11-28T03:07:32.460Z,17.27
2022-11-28T03:10:17.411Z,17.58
2022-11-28T03:12:58.844Z,20.75
2022-11-28T03:15:37.964Z,16.05
2022-11-28T03:18:25.803Z,21.48
2022-11-28T03:20:57.014Z,19.40
2022-11-28T03:23:44.620Z,24.23
2022-11-28T03:26:18.492Z,20.33
2022-11-28T03:28:57.098Z,23.65
2022-11-28T03:31:33.223Z,29.60
2022-11-28T03:34:02.048Z,20.60
2022-11-28T03:36:38.445Z,25.85
2022-11-28T03:39:10.795Z,25.98
2022-11-28T03:41:55.718Z,25.88
2022-11-28T03:44:27.900Z,24.85
2022-11-28T03:46:57.861Z,25.10
2022-11-28T03:49:30.052Z,33.67
2022-11-28T03:52:03.516Z,35.25
2022-11-28T03:54:45.258Z,35.78
2022-11-28T03:57:34.785Z,37.17
2022-11-28T04:00:06.520Z,34.70
2022-11-28T04:02:42.310Z,35.60
2022-11-28T04:05:39.659Z,38.42
2022-11-28T04:08:29.431Z,43.97
2022-11-28T04:11:03.383Z,45.30
2022-11-28T04:13:45.038Z,43.10
2022-11-28T04:16:19.880Z,50.55
2022-11-28T04:19:07.914Z,39.83
2022-11-28T04:21:37.777Z,53.58
2022-11-28T04:24:11.012Z,48.85
2022-11-28T04:26:42.853Z,46.47
2022-11-28T04:29:13.894Z,48.03
2022-11-28T04:31:42.061Z,54.72
2022-11-28T04:34:11.225Z,48.72
2022-11-28T04:36:39.790Z,49.45
2022-11-28T04:39:12.046Z,48.97
2022-11-28T04:42:17.013Z,50.35
2022-11-28T04:44:47.005Z,60.72
2022-11-28T04:47:13.717Z,49.35
2022-11-28T04:49:40.156Z,51.33
2022-11-28T04:52:14.158Z,57.17
2022-11-28T04:54:40.776Z,56.38
2022-11-28T04:57:15.537Z,55.60
2022-11-28T04:59:42.847Z,66.57
2022-11-28T05:02:14.998Z,58.47
2022-11-28T05:04:43.657Z,60.58
2022-11-28T05:07:10.824Z,54.92
2022-11-28T05:09:37.135Z,60.20
2022-11-28T05:12:03.866Z,55.80
2022-11-28T05:14:30.246Z,49.38
2022-11-28T05:16:56.624Z,54.47
2022-11-28T05:19:23.094Z,52.13
2022-11-28T05:21:49.432Z,54.13
2022-11-28T05:24:15.796Z,47.80
2022-11-28T05:26:42.262Z,50.97
2022-11-28T05:29:08.657Z,48.70
2022-11-28T05:31:35.347Z,50.63
2022-11-28T05:34:01.698Z,59.13
2022-11-28T05:36:28.100Z,52.55
2022-11-28T05:38:54.458Z,49.28
2022-11-28T05:41:22.684Z,49.25
2022-11-28T05:43:49.430Z,50.13
2022-11-28T05:46:16.248Z,43.97
2022-11-28T05:48:42.628Z,49.13
2022-11-28T05:51:09.143Z,41.42
2022-11-28T05:53:35.590Z,41.53
2022-11-28T05:56:15.912Z,41.80
2022-11-28T05:58:43.358Z,42.70
2022-11-28T06:01:10.761Z,40.92
2022-11-28T06:03:37.218Z,37.90
2022-11-28T06:06:03.811Z,39.58
2022-11-28T06:08:30.198Z,44.35
2022-11-28T06:10:57.901Z,38.28
2022-11-28T06:13:24.339Z,42.55
2022-11-28T06:15:50.734Z,46.47
2022-11-28T06:18:17.127Z,38.58
2022-11-28T06:20:43.463Z,41.50
2022-11-28T06:23:09.770Z,40.35
2022-11-28T06:25:36.107Z,36.90
2022-11-28T06:28:02.423Z,37.45
2022-11-28T06:30:28.794Z,39.53
2022-11-28T06:32:55.141Z,39.65
2022-11-28T06:35:21.600Z,34.97
2022-11-28T06:37:47.924Z,38.60
2022-11-28T06:40:14.675Z,35.30
2022-11-28T06:42:41.027Z,37.10
2022-11-28T06:45:07.901Z,34.42
2022-11-28T06:47:34.280Z,33.63
2022-11-28T06:50:00.755Z,30.45
2022-11-28T06:52:27.494Z,31.90
2022-11-28T06:54:53.775Z,29.90
2022-11-28T06:57:20.082Z,37.50
2022-11-28T06:59:48.742Z,33.08
2022-11-28T07:02:15.172Z,30.85
2022-11-28T07:04:41.481Z,28.95
2022-11-28T07:07:07.746Z,31.75
2022-11-28T07:09:34.123Z,30.02
2022-11-28T07:12:00.434Z,30.38
2022-11-28T07:14:26.773Z,38.22
2022-11-28T07:16:53.233Z,33.80
2022-11-28T07:19:19.543Z,35.40
2022-11-28T07:21:46.008Z,35.72
2022-11-28T07:24:12.313Z,35.42
2022-11-28T07:26:38.607Z,37.50
2022-11-28T07:29:04.870Z,37.95
2022-11-28T07:31:31.222Z,42.13
2022-11-28T07:33:57.703Z,45.17
2022-11-28T07:36:27.050Z,43.15
2022-11-28T07:38:58.626Z,42.63
2022-11-28T07:41:26.937Z,43.35
2022-11-28T07:44:02.272Z,49.03
2022-11-28T07:46:30.721Z,51.45
2022-11-28T07:48:57.283Z,47.35
2022-11-28T07:51:26.676Z,43.90
2022-11-28T07:53:53.423Z,48.65
2022-11-28T07:56:22.902Z,46.03
2022-11-28T07:58:50.076Z,42.90
2022-11-28T08:01:23.731Z,47.60
2022-11-28T08:03:51.715Z,51.08
2022-11-28T08:06:19.924Z,47.38
2022-11-28T08:08:47.487Z,48.63
2022-11-28T08:11:16.377Z,54.08
2022-11-28T08:13:43.253Z,55.13
2022-11-28T08:16:16.102Z,44.92
2022-11-28T08:18:42.860Z,50.38
2022-11-28T08:21:15.101Z,56.85
2022-11-28T08:23:41.814Z,61.75
2022-11-28T08:26:10.350Z,53.53
2022-11-28T08:28:37.167Z,53.97
2022-11-28T08:31:11.650Z,57.50
2022-11-28T08:33:38.576Z,62.35
2022-11-28T08:36:09.695Z,61.03
2022-11-28T08:38:36.908Z,68.72
2022-11-28T08:41:09.532Z,68.22
2022-11-28T08:43:37.508Z,64.95
2022-11-28T08:46:09.421Z,66.15
2022-11-28T08:48:36.469Z,64.70
2022-11-28T08:51:03.482Z,71.13
2022-11-28T08:53:29.943Z,79.53
2022-11-28T08:55:56.472Z,78.05
2022-11-28T08:58:23.352Z,69.07
2022-11-28T09:00:49.874Z,70.82
2022-11-28T09:03:18.350Z,78.35
2022-11-28T09:05:46.832Z,80.38
2022-11-28T09:08:14.751Z,70.82
2022-11-28T09:10:42.474Z,73.47
2022-11-28T09:13:08.840Z,83.00
2022-11-28T09:15:39.315Z,73.45
2022-11-28T09:18:05.873Z,78.72
2022-11-28T09:20:33.073Z,86.72
2022-11-28T09:22:59.397Z,108.90
2022-11-28T09:25:25.726Z,106.80
2022-11-28T09:27:52.083Z,98.05
2022-11-28T09:30:18.760Z,85.15
2022-11-28T09:32:48.469Z,96.50
2022-11-28T09:35:15.043Z,100.43
2022-11-28T09:37:41.516Z,82.50
2022-11-28T09:40:17.201Z,84.50
2022-11-28T09:42:44.548Z,94.03
2022-11-28T09:45:18.676Z,100.07
2022-11-28T09:47:59.850Z,98.82
2022-11-28T09:50:32.435Z,110.10
2022-11-28T09:53:05.564Z,112.95
2022-11-28T09:55:40.564Z,100.47
2022-11-28T09:58:26.451Z,112.05
2022-11-28T10:01:31.586Z,106.00
2022-11-28T10:04:09.615Z,101.18
2022-11-28T10:06:58.657Z,101.38
2022-11-28T10:09:27.980Z,101.03
2022-11-28T10:12:27.104Z,110.40
2022-11-28T10:15:14.025Z,123.97
2022-11-28T10:17:51.850Z,119.47
2022-11-28T10:20:25.495Z,128.75
2022-11-28T10:22:57.676Z,125.70
2022-11-28T10:25:46.835Z,124.72
2022-11-28T10:28:34.627Z,132.98
2022-11-28T10:31:12.148Z,120.07
2022-11-28T10:34:23.429Z,158.02
2022-11-28T10:37:08.032Z,143.77
2022-11-28T10:39:43.247Z,141.63
2022-11-28T10:42:17.379Z,154.68
2022-11-28T10:44:58.746Z,149.57
2022-11-28T10:47:47.172Z,140.27
2022-11-28T10:50:21.408Z,136.55
2022-11-28T10:53:09.080Z,138.45
2022-11-28T10:56:01.802Z,160.20
2022-11-28T10:58:57.684Z,132.95
2022-11-28T11:01:29.548Z,160.23
2022-11-28T11:03:55.983Z,131.95
2022-11-28T11:06:36.095Z,149.30
2022-11-28T11:09:09.516Z,147.93
2022-11-28T11:11:48.415Z,148.60
2022-11-28T11:14:16.056Z,141.30
2022-11-28T11:16:49.545Z,163.63
2022-11-28T11:19:28.644Z,150.77
2022-11-28T11:22:01.109Z,154.35
2022-11-28T11:24:27.846Z,162.65
2022-11-28T11:27:01.854Z,151.30
2022-11-28T11:29:28.131Z,142.50
2022-11-28T11:31:55.271Z,149.20
2022-11-28T11:34:23.741Z,140.75
2022-11-28T11:36:51.550Z,159.35
2022-11-28T11:39:24.307Z,153.38
2022-11-28T11:42:12.473Z,141.80
2022-11-28T11:44:38.836Z,162.60
2022-11-28T11:47:10.550Z,143.00
2022-11-28T11:49:39.402Z,164.82
2022-11-28T11:52:11.576Z,153.75
2022-11-28T11:54:38.271Z,144.00
2022-11-28T11:57:32.016Z,191.13
2022-11-28T12:00:09.560Z,185.05
2022-11-28T12:03:00.085Z,167.80
2022-11-28T12:05:52.686Z,182.82
2022-11-28T12:08:35.093Z,144.55
2022-11-28T12:11:07.482Z,151.35
2022-11-28T12:13:34.191Z,137.88
2022-11-28T12:16:10.800Z,136.90
2022-11-28T12:19:15.831Z,144.95
2022-11-28T12:22:33.448Z,161.98
2022-11-28T12:25:21.648Z,165.43
2022-11-28T12:28:33.789Z,162.05
2022-11-28T12:31:03.001Z,166.98
2022-11-28T12:33:36.530Z,177.35
2022-11-28T12:36:29.403Z,151.10
2022-11-28T12:39:04.810Z,136.23
2022-11-28T12:41:37.121Z,167.93
2022-11-28T12:44:12.986Z,169.88
2022-11-28T12:47:03.732Z,176.35
2022-11-28T12:49:58.311Z,176.20
2022-11-28T12:52:45.703Z,152.60
2022-11-28T12:55:41.663Z,165.25
2022-11-28T12:58:11.135Z,154.43
2022-11-28T13:00:48.656Z,168.20
2022-11-28T13:03:39.589Z,141.00
2022-11-28T13:06:23.516Z,136.60
2022-11-28T13:09:09.207Z,150.55
2022-11-28T13:11:50.582Z,169.95
2022-11-28T13:14:32.294Z,172.60
2022-11-28T13:17:39.454Z,161.15
2022-11-28T13:20:34.230Z,166.95
2022-11-28T13:23:09.370Z,161.52
2022-11-28T13:25:48.766Z,162.55
2022-11-28T13:28:38.154Z,145.75
2022-11-28T13:31:17.727Z,146.48
2022-11-28T13:33:51.308Z,147.10
2022-11-28T13:39:32.257Z,136.60
2022-11-28T13:45:30.109Z,138.75
2022-11-28T13:47:58.646Z,147.82
2022-11-28T13:50:24.979Z,159.13
2022-11-28T13:53:03.311Z,157.75
2022-11-28T13:55:51.659Z,160.70
2022-11-28T13:58:26.141Z,146.82
2022-11-28T14:01:10.743Z,158.13
2022-11-28T14:03:57.421Z,154.05
2022-11-28T14:06:30.006Z,148.90
2022-11-28T14:09:11.345Z,154.77
2022-11-28T14:12:02.194Z,159.07
2022-11-28T14:14:52.330Z,170.90
2022-11-28T14:17:43.468Z,153.85
2022-11-28T14:20:15.936Z,154.15
2022-11-28T14:22:54.419Z,172.68
2022-11-28T14:25:28.482Z,165.48
2022-11-28T14:28:01.940Z,169.57
2022-11-28T14:30:38.504Z,159.15
2022-11-28T14:33:14.486Z,179.55
2022-11-28T14:35:50.035Z,167.15
2022-11-28T14:38:31.637Z,155.10
2022-11-28T14:41:02.680Z,168.77
2022-11-28T14:43:30.299Z,166.15
2022-11-28T14:46:15.115Z,170.05
2022-11-28T14:49:02.644Z,169.63
2022-11-28T14:52:30.820Z,173.95
2022-11-28T14:54:55.727Z,154.48
2022-11-28T14:57:29.118Z,151.98
2022-11-28T14:59:58.271Z,164.25
2022-11-28T15:02:48.550Z,164.50
2022-11-28T15:05:23.954Z,160.25
2022-11-28T15:08:09.092Z,166.10
2022-11-28T15:10:48.600Z,159.35
2022-11-28T15:13:39.473Z,158.80
2022-11-28T15:16:10.178Z,165.02
2022-11-28T15:18:39.248Z,153.27
2022-11-28T15:21:11.625Z,162.88
2022-11-28T15:23:38.070Z,169.73
2022-11-28T15:26:05.512Z,167.48
2022-11-28T15:28:32.614Z,187.93
2022-11-28T15:31:01.304Z,166.38
2022-11-28T15:33:28.880Z,179.20
2022-11-28T15:36:02.208Z,172.75
2022-11-28T15:38:30.868Z,167.45
2022-11-28T15:40:58.930Z,178.52
2022-11-28T15:43:25.659Z,157.65
2022-11-28T15:45:55.935Z,176.20
2022-11-28T15:48:40.134Z,174.27
2022-11-28T15:51:07.992Z,163.57
2022-11-28T15:53:40.696Z,171.82
2022-11-28T15:56:10.059Z,163.15
2022-11-28T15:58:37.036Z,156.30
2022-11-28T16:01:06.361Z,177.82
2022-11-28T16:03:48.222Z,161.55
2022-11-28T16:06:15.078Z,174.57
2022-11-28T16:08:53.454Z,168.27
2022-11-28T16:11:22.450Z,172.35
2022-11-28T16:13:50.258Z,162.32
2022-11-28T16:16:21.441Z,166.48
2022-11-28T16:19:02.356Z,155.70
2022-11-28T16:21:34.023Z,161.25
2022-11-28T16:24:01.792Z,162.13
2022-11-28T16:26:36.979Z,172.75
2022-11-28T16:29:12.799Z,167.20
2022-11-28T16:31:39.561Z,186.73
2022-11-28T16:34:14.018Z,152.10
2022-11-28T16:36:42.036Z,170.65
2022-11-28T16:39:11.252Z,181.10
2022-11-28T16:41:40.880Z,176.80
2022-11-28T16:44:13.489Z,166.93
2022-11-28T16:46:48.605Z,165.18
2022-11-28T16:49:53.503Z,151.57
2022-11-28T16:52:22.819Z,169.95
2022-11-28T16:54:49.542Z,185.82
2022-11-28T16:57:16.599Z,175.73
2022-11-28T16:59:44.315Z,164.20
2022-11-28T17:02:17.058Z,177.63
2022-11-28T17:04:44.461Z,179.95
2022-11-28T17:07:12.774Z,178.82
2022-11-28T17:09:43.306Z,158.73
2022-11-28T17:12:27.315Z,170.18
2022-11-28T17:14:54.606Z,187.52
2022-11-28T17:17:22.928Z,164.18
2022-11-28T17:19:49.893Z,171.10
2022-11-28T17:22:19.484Z,171.50
2022-11-28T17:24:47.637Z,201.13
2022-11-28T17:27:14.499Z,192.65
2022-11-28T17:29:41.835Z,209.77
2022-11-28T17:32:13.052Z,179.50
2022-11-28T17:34:39.815Z,180.02
2022-11-28T17:37:06.228Z,171.60
2022-11-28T17:39:32.789Z,196.60
2022-11-28T17:41:59.401Z,206.13
2022-11-28T17:44:30.242Z,171.45
2022-11-28T17:46:58.486Z,193.32
2022-11-28T17:49:25.176Z,191.48
2022-11-28T17:51:52.751Z,189.38
2022-11-28T17:54:21.831Z,179.48
2022-11-28T17:56:49.889Z,184.13
2022-11-28T17:59:18.743Z,195.43
2022-11-28T18:01:45.697Z,184.18
2022-11-28T18:04:12.526Z,186.90
2022-11-28T18:06:39.141Z,213.95
2022-11-28T18:09:11.671Z,178.80
2022-11-28T18:11:40.668Z,191.40
2022-11-28T18:14:07.149Z,198.10
2022-11-28T18:16:33.608Z,200.35
2022-11-28T18:19:00.037Z,207.57
2022-11-28T18:21:26.318Z,172.13
2022-11-28T18:23:53.391Z,175.98
2022-11-28T18:26:22.951Z,190.98
2022-11-28T18:28:49.918Z,193.02
2022-11-28T18:31:24.060Z,197.45
2022-11-28T18:33:51.327Z,174.50
2022-11-28T18:36:23.356Z,187.32
2022-11-28T18:38:50.144Z,174.70
2022-11-28T18:41:17.808Z,193.27
2022-11-28T18:43:44.348Z,197.38
2022-11-28T18:46:16.048Z,194.88
2022-11-28T18:48:44.981Z,167.65
2022-11-28T18:51:13.185Z,187.35
2022-11-28T18:53:40.356Z,171.30
2022-11-28T18:56:07.415Z,193.45
2022-11-28T18:58:36.049Z,186.50
2022-11-28T19:01:13.779Z,181.68
2022-11-28T19:03:40.798Z,171.23
2022-11-28T19:06:11.853Z,186.93
2022-11-28T19:08:40.097Z,192.88
2022-11-28T19:11:11.664Z,166.65
2022-11-28T19:13:39.616Z,172.52
2022-11-28T19:16:12.034Z,192.65
2022-11-28T19:18:39.361Z,191.43
2022-11-28T19:21:07.072Z,170.13
2022-11-28T19:23:33.567Z,203.07
2022-11-28T19:26:05.372Z,180.60
2022-11-28T19:28:31.843Z,176.82
2022-11-28T19:31:09.175Z,190.95
2022-11-28T19:33:35.518Z,165.48
2022-11-28T19:36:03.178Z,162.30
2022-11-28T19:38:29.560Z,156.02
2022-11-28T19:40:55.994Z,145.23
2022-11-28T19:43:22.366Z,141.90
2022-11-28T19:45:55.343Z,149.98
2022-11-28T19:48:22.602Z,123.75
2022-11-28T19:50:52.259Z,118.45
2022-11-28T19:53:19.735Z,118.53
2022-11-28T19:55:46.588Z,110.65
2022-11-28T19:58:13.475Z,118.30
2022-11-28T20:00:40.350Z,117.63
2022-11-28T20:03:06.762Z,99.18
2022-11-28T20:05:35.723Z,100.35
2022-11-28T20:08:02.466Z,106.95
2022-11-28T20:10:30.208Z,103.68
2022-11-28T20:12:57.612Z,112.10
2022-11-28T20:15:23.984Z,98.15
2022-11-28T20:17:51.246Z,125.15
2022-11-28T20:20:17.564Z,140.20
2022-11-28T20:22:43.892Z,122.22
2022-11-28T20:25:10.336Z,115.28
2022-11-28T20:27:37.653Z,94.65
2022-11-28T20:30:04.726Z,84.85
2022-11-28T20:32:31.031Z,84.72
2022-11-28T20:34:57.503Z,84.38
2022-11-28T20:37:23.854Z,89.93
2022-11-28T20:39:50.619Z,108.40
2022-11-28T20:42:16.991Z,81.28
2022-11-28T20:44:43.345Z,81.53
2022-11-28T20:47:09.612Z,98.35
2022-11-28T20:49:35.914Z,123.72
2022-11-28T20:52:02.204Z,160.52
2022-11-28T20:54:28.523Z,132.68
2022-11-28T20:59:41.544Z,189.15
2022-11-28T21:02:10.642Z,149.23
2022-11-28T21:04:37.154Z,170.05
2022-11-28T21:07:03.496Z,131.43
2022-11-28T21:09:29.942Z,140.68
2022-11-28T21:11:58.578Z,149.75
2022-11-28T21:14:25.907Z,121.65
2022-11-28T21:16:52.269Z,140.48
2022-11-28T21:19:18.707Z,127.88
2022-11-28T21:21:45.060Z,127.15
2022-11-28T21:24:13.530Z,131.07
2022-11-28T21:26:45.290Z,151.38
2022-11-28T21:29:16.110Z,155.60
2022-11-28T21:31:44.328Z,154.70
2022-11-28T21:34:12.247Z,130.90
2022-11-28T21:36:38.536Z,164.70
2022-11-28T21:39:04.920Z,147.43
2022-11-28T21:41:32.316Z,132.85
2022-11-28T21:43:59.717Z,156.00
2022-11-28T21:46:26.891Z,150.25
2022-11-28T21:48:53.409Z,147.40
2022-11-28T21:51:22.852Z,129.10
2022-11-28T21:53:49.571Z,157.98
2022-11-28T21:56:16.170Z,171.27
2022-11-28T21:58:42.529Z,153.23
2022-11-28T22:01:11.414Z,152.50
2022-11-28T22:03:39.407Z,133.75
2022-11-28T22:06:15.680Z,149.73
2022-11-28T22:08:42.561Z,158.60
2022-11-28T22:11:09.398Z,163.95
2022-11-28T22:13:36.183Z,120.13
2022-11-28T22:16:11.383Z,136.02
2022-11-28T22:18:38.492Z,151.82
2022-11-28T22:21:22.321Z,139.15
2022-11-28T22:23:52.775Z,112.63
2022-11-28T22:26:19.170Z,129.50
2022-11-28T22:28:50.416Z,143.95
2022-11-28T22:31:19.746Z,126.45
2022-11-28T22:33:46.052Z,145.45
2022-11-28T22:36:15.142Z,138.73
2022-11-28T22:38:42.780Z,135.27
2022-11-28T22:41:12.878Z,148.27
2022-11-28T22:43:39.706Z,119.32
2022-11-28T22:46:07.695Z,119.05
2022-11-28T22:48:35.199Z,124.72
2022-11-28T22:51:09.812Z,122.97
2022-11-28T22:53:36.711Z,125.20
2022-11-28T22:56:04.870Z,118.47
2022-11-28T22:58:42.430Z,112.30
2022-11-28T23:01:11.881Z,129.48
2022-11-28T23:03:38.228Z,109.45
2022-11-28T23:06:06.832Z,116.65
2022-11-28T23:08:33.959Z,128.63
2022-11-28T23:11:08.097Z,112.85
2022-11-28T23:13:35.820Z,105.65
2022-11-28T23:16:18.547Z,111.78
2022-11-28T23:18:46.969Z,110.38
2022-11-28T23:21:14.489Z,101.90
2022-11-28T23:23:41.117Z,109.28
2022-11-28T23:26:12.544Z,109.35
2022-11-28T23:28:40.090Z,105.88
2022-11-28T23:31:09.471Z,102.43
2022-11-28T23:33:36.422Z,96.53
2022-11-28T23:36:30.575Z,95.05
2022-11-28T23:38:59.407Z,94.35
2022-11-28T23:41:26.905Z,90.22
2022-11-28T23:43:53.573Z,84.80
2022-11-28T23:46:21.514Z,95.60
2022-11-28T23:48:48.444Z,74.38
2022-11-28T23:51:16.311Z,71.18
2022-11-28T23:53:43.235Z,69.25
2022-11-28T23:56:18.012Z,71.18
2022-11-28T23:58:44.678Z,68.28
